Time,TemperatureF,DewpointF,PressureIn,WindDirection,WindDirectionDegrees,WindSpeedMPH,WindSpeedGustMPH,Humidity,HourlyPrecipIn,Conditions,Clouds,dailyrainin,SolarRadiationWatts/m^2,SoftwareType,DateUTC
2013-06-08 00:23:00,51.4,47.0,30.26,North,355,1.0,-999.0,85,-99.99,,,0.00,0,weatherlink.com 1.10,2013-06-07 23:23:00,
2013-06-08 00:38:00,50.9,47.0,30.26,NNW,346,1.0,-999.0,86,-99.99,,,0.00,0,weatherlink.com 1.10,2013-06-07 23:38:00,
2013-06-08 01:08:00,50.3,46.0,30.26,NNE,26,3.0,-999.0,85,-99.99,,,0.00,0,weatherlink.com 1.10,2013-06-08 00:08:00,
2013-06-08 01:23:00,50.0,46.0,30.26,NNW,342,1.0,-999.0,85,-99.99,,,0.00,0,weatherlink.com 1.10,2013-06-08 00:23:00,
2013-06-08 01:38:00,49.9,46.0,30.25,North,5,1.0,-999.0,85,-99.99,,,0.00,0,weatherlink.com 1.10,2013-06-08 00:38:00,
2013-06-08 02:08:00,49.2,45.0,30.25,NNW,345,1.0,-999.0,85,-99.99,,,0.00,0,weatherlink.com 1.10,2013-06-08 01:08:00,
2013-06-08 02:53:00,47.9,44.0,30.25,North,10,2.0,-999.0,86,-99.99,,,0.00,0,weatherlink.com 1.10,2013-06-08 01:53:00,
2013-06-08 03:08:00,47.9,44.0,30.25,NNE,25,0.0,-999.0,87,-99.99,,,0.00,0,weatherlink.com 1.10,2013-06-08 02:08:00,
2013-06-08 03:38:00,46.5,44.0,30.24,NNW,334,2.0,-999.0,89,-99.99,,,0.00,0,weatherlink.com 1.10,2013-06-08 02:38:00,
2013-06-08 03:53:00,46.4,44.0,30.24,North,355,0.0,-999.0,91,-99.99,,,0.00,0,weatherlink.com 1.10,2013-06-08 02:53:00,
2013-06-08 04:08:00,46.1,44.0,30.24,North,355,1.0,-999.0,91,-99.99,,,0.00,0,weatherlink.com 1.10,2013-06-08 03:08:00,
2013-06-08 04:38:00,45.5,43.0,30.23,North,351,1.0,-999.0,91,-99.99,,,0.00,0,weatherlink.com 1.10,2013-06-08 03:38:00,
2013-06-08 04:53:00,45.4,43.0,30.23,North,5,0.0,-999.0,92,-99.99,,,0.00,11,weatherlink.com 1.10,2013-06-08 03:53:00,
2013-06-08 05:08:00,45.8,44.0,30.23,North,360,3.0,-999.0,93,-99.99,,,0.00,14,weatherlink.com 1.10,2013-06-08 04:08:00,
2013-06-08 05:23:00,46.1,44.0,30.23,North,360,2.0,-999.0,93,-99.99,,,0.00,25,weatherlink.com 1.10,2013-06-08 04:23:00,
2013-06-08 05:38:00,46.5,45.0,30.23,NNW,334,3.0,-999.0,93,-99.99,,,0.00,32,weatherlink.com 1.10,2013-06-08 04:38:00,
2013-06-08 05:53:00,47.1,45.0,30.23,North,355,4.0,-999.0,93,-99.99,,,0.00,39,weatherlink.com 1.10,2013-06-08 04:53:00,
2013-06-08 06:08:00,47.7,46.0,30.23,North,5,4.0,-999.0,93,-99.99,,,0.00,42,weatherlink.com 1.10,2013-06-08 05:08:00,
2013-06-08 06:23:00,48.5,46.0,30.22,NNW,341,1.0,-999.0,92,-99.99,,,0.00,84,weatherlink.com 1.10,2013-06-08 05:23:00,
2013-06-08 06:38:00,49.8,48.0,30.23,NNE,32,1.0,-999.0,92,-99.99,,,0.00,165,weatherlink.com 1.10,2013-06-08 05:38:00,
2013-06-08 06:54:00,51.9,48.0,30.23,NNE,25,2.0,-999.0,87,-99.99,,,0.00,197,weatherlink.com 1.10,2013-06-08 05:54:00,
2013-06-08 07:09:00,53.6,48.0,30.23,NE,38,1.0,-999.0,82,-99.99,,,0.00,236,weatherlink.com 1.10,2013-06-08 06:09:00,
2013-06-08 07:24:00,54.5,48.0,30.23,NE,47,4.0,-999.0,79,-99.99,,,0.00,274,weatherlink.com 1.10,2013-06-08 06:24:00,
2013-06-08 07:39:00,55.9,49.0,30.23,North,5,2.0,-999.0,77,-99.99,,,0.00,318,weatherlink.com 1.10,2013-06-08 06:39:00,
2013-06-08 07:54:00,56.7,49.0,30.23,NE,53,7.0,-999.0,74,-99.99,,,0.00,366,weatherlink.com 1.10,2013-06-08 06:54:00,
2013-06-08 08:09:00,57.7,49.0,30.22,NNE,26,4.0,-999.0,73,-99.99,,,0.00,410,weatherlink.com 1.10,2013-06-08 07:09:00,
2013-06-08 08:24:00,58.8,49.0,30.22,NE,44,2.0,-999.0,70,-99.99,,,0.00,450,weatherlink.com 1.10,2013-06-08 07:24:00,
2013-06-08 08:39:00,59.5,50.0,30.22,NNE,21,4.0,-999.0,70,-99.99,,,0.00,461,weatherlink.com 1.10,2013-06-08 07:39:00,
2013-06-08 08:54:00,60.5,51.0,30.22,NNE,22,0.0,-999.0,70,-99.99,,,0.00,482,weatherlink.com 1.10,2013-06-08 07:54:00,
2013-06-08 09:09:00,60.9,50.0,30.21,NE,37,6.0,-999.0,68,-99.99,,,0.00,478,weatherlink.com 1.10,2013-06-08 08:09:00,
2013-06-08 09:24:00,61.9,51.0,30.21,NNE,30,5.0,-999.0,68,-99.99,,,0.00,508,weatherlink.com 1.10,2013-06-08 08:24:00,
2013-06-08 09:39:00,63.3,53.0,30.21,North,355,0.0,-999.0,68,-99.99,,,0.00,592,weatherlink.com 1.10,2013-06-08 08:39:00,
2013-06-08 09:54:00,64.3,52.0,30.20,NNE,30,5.0,-999.0,65,-99.99,,,0.00,622,weatherlink.com 1.10,2013-06-08 08:54:00,
2013-06-08 10:09:00,65.2,53.0,30.20,NNE,15,4.0,-999.0,64,-99.99,,,0.00,650,weatherlink.com 1.10,2013-06-08 09:09:00,
2013-06-08 10:24:00,66.0,52.0,30.20,NE,35,2.0,-999.0,62,-99.99,,,0.00,677,weatherlink.com 1.10,2013-06-08 09:24:00,
2013-06-08 10:40:00,67.1,53.0,30.19,ENE,57,1.0,-999.0,61,-99.99,,,0.00,689,weatherlink.com 1.10,2013-06-08 09:40:00,
2013-06-08 10:55:00,68.4,54.0,30.18,NW,319,0.0,-999.0,60,-99.99,,,0.00,731,weatherlink.com 1.10,2013-06-08 09:55:00,
2013-06-08 11:10:00,69.2,53.0,30.18,NNE,20,2.0,-999.0,57,-99.99,,,0.00,751,weatherlink.com 1.10,2013-06-08 10:10:00,
2013-06-08 11:25:00,69.7,53.0,30.18,NE,38,2.0,-999.0,56,-99.99,,,0.00,770,weatherlink.com 1.10,2013-06-08 10:25:00,
2013-06-08 11:40:00,70.1,54.0,30.18,NNW,339,4.0,-999.0,58,-99.99,,,0.00,780,weatherlink.com 1.10,2013-06-08 10:40:00,
2013-06-08 11:55:00,70.8,54.0,30.17,NNW,335,1.0,-999.0,55,-99.99,,,0.00,800,weatherlink.com 1.10,2013-06-08 10:55:00,
2013-06-08 12:10:00,72.0,53.0,30.17,NNW,329,4.0,-999.0,52,-99.99,,,0.00,810,weatherlink.com 1.10,2013-06-08 11:10:00,
2013-06-08 12:25:00,72.3,51.0,30.16,NNE,22,1.0,-999.0,48,-99.99,,,0.00,828,weatherlink.com 1.10,2013-06-08 11:25:00,
2013-06-08 12:40:00,72.2,53.0,30.16,NNW,336,1.0,-999.0,52,-99.99,,,0.00,837,weatherlink.com 1.10,2013-06-08 11:40:00,
2013-06-08 12:55:00,72.6,53.0,30.16,WNW,286,1.0,-999.0,50,-99.99,,,0.00,840,weatherlink.com 1.10,2013-06-08 11:55:00,
2013-06-08 13:10:00,74.1,52.0,30.15,SW,223,2.0,-999.0,47,-99.99,,,0.00,851,weatherlink.com 1.10,2013-06-08 12:10:00,
2013-06-08 13:25:00,74.3,54.0,30.14,North,349,1.0,-999.0,49,-99.99,,,0.00,860,weatherlink.com 1.10,2013-06-08 12:25:00,
2013-06-08 13:40:00,73.9,52.0,30.14,SSW,193,3.0,-999.0,46,-99.99,,,0.00,896,weatherlink.com 1.10,2013-06-08 12:40:00,
2013-06-08 13:55:00,74.9,56.0,30.14,NW,311,3.0,-999.0,52,-99.99,,,0.00,939,weatherlink.com 1.10,2013-06-08 12:55:00,
2013-06-08 14:10:00,75.6,54.0,30.14,NW,304,2.0,-999.0,48,-99.99,,,0.00,803,weatherlink.com 1.10,2013-06-08 13:10:00,
2013-06-08 14:25:00,74.1,53.0,30.13,SSW,202,9.0,-999.0,48,-99.99,,,0.00,831,weatherlink.com 1.10,2013-06-08 13:25:00,
2013-06-08 14:40:00,73.8,55.0,30.13,WSW,254,4.0,-999.0,52,-99.99,,,0.00,805,weatherlink.com 1.10,2013-06-08 13:40:00,
2013-06-08 14:55:00,74.7,54.0,30.13,WSW,240,8.0,-999.0,49,-99.99,,,0.00,798,weatherlink.com 1.10,2013-06-08 13:55:00,
2013-06-08 15:10:00,74.5,55.0,30.13,West,261,5.0,-999.0,50,-99.99,,,0.00,784,weatherlink.com 1.10,2013-06-08 14:10:00,
2013-06-08 15:25:00,74.5,53.0,30.12,WSW,250,5.0,-999.0,47,-99.99,,,0.00,761,weatherlink.com 1.10,2013-06-08 14:25:00,
2013-06-08 15:40:00,75.1,55.0,30.12,WSW,254,5.0,-999.0,50,-99.99,,,0.00,752,weatherlink.com 1.10,2013-06-08 14:40:00,
2013-06-08 15:55:00,75.7,55.0,30.11,SW,223,3.0,-999.0,48,-99.99,,,0.00,724,weatherlink.com 1.10,2013-06-08 14:55:00,
2013-06-08 16:10:00,75.7,55.0,30.11,West,269,2.0,-999.0,48,-99.99,,,0.00,694,weatherlink.com 1.10,2013-06-08 15:10:00,
2013-06-08 16:26:00,75.6,52.0,30.10,SW,223,5.0,-999.0,44,-99.99,,,0.00,668,weatherlink.com 1.10,2013-06-08 15:26:00,
2013-06-08 16:41:00,75.1,55.0,30.10,West,264,7.0,-999.0,49,-99.99,,,0.00,629,weatherlink.com 1.10,2013-06-08 15:41:00,
2013-06-08 16:56:00,75.0,50.0,30.09,South,179,4.0,-999.0,42,-99.99,,,0.00,596,weatherlink.com 1.10,2013-06-08 15:56:00,
2013-06-08 17:11:00,75.4,53.0,30.08,West,281,4.0,-999.0,46,-99.99,,,0.00,554,weatherlink.com 1.10,2013-06-08 16:11:00,
2013-06-08 17:26:00,75.5,53.0,30.08,West,268,4.0,-999.0,46,-99.99,,,0.00,520,weatherlink.com 1.10,2013-06-08 16:26:00,
2013-06-08 17:41:00,75.2,50.0,30.07,SSW,213,1.0,-999.0,42,-99.99,,,0.00,489,weatherlink.com 1.10,2013-06-08 16:41:00,
2013-06-08 17:56:00,74.5,52.0,30.07,WSW,243,4.0,-999.0,46,-99.99,,,0.00,455,weatherlink.com 1.10,2013-06-08 16:56:00,
2013-06-08 18:11:00,73.7,50.0,30.07,WSW,249,2.0,-999.0,44,-99.99,,,0.00,418,weatherlink.com 1.10,2013-06-08 17:11:00,
2013-06-08 18:26:00,72.7,52.0,30.06,West,267,0.0,-999.0,48,-99.99,,,0.00,385,weatherlink.com 1.10,2013-06-08 17:26:00,
2013-06-08 18:41:00,72.7,52.0,30.06,South,186,5.0,-999.0,48,-99.99,,,0.00,348,weatherlink.com 1.10,2013-06-08 17:41:00,
2013-06-08 18:56:00,69.5,52.0,30.06,SSW,208,8.0,-999.0,55,-99.99,,,0.00,313,weatherlink.com 1.10,2013-06-08 17:56:00,
2013-06-08 19:11:00,68.9,51.0,30.06,SSW,199,8.0,-999.0,54,-99.99,,,0.00,274,weatherlink.com 1.10,2013-06-08 18:11:00,
2013-06-08 19:26:00,68.2,50.0,30.06,SSW,211,6.0,-999.0,53,-99.99,,,0.00,241,weatherlink.com 1.10,2013-06-08 18:26:00,
2013-06-08 19:41:00,67.9,52.0,30.06,SSW,205,1.0,-999.0,57,-99.99,,,0.00,204,weatherlink.com 1.10,2013-06-08 18:41:00,
2013-06-08 20:11:00,66.1,54.0,30.06,South,184,5.0,-999.0,66,-99.99,,,0.00,130,weatherlink.com 1.10,2013-06-08 19:11:00,
2013-06-08 20:26:00,65.0,54.0,30.06,South,178,1.0,-999.0,68,-99.99,,,0.00,97,weatherlink.com 1.10,2013-06-08 19:26:00,
2013-06-08 20:56:00,62.9,54.0,30.06,South,169,4.0,-999.0,73,-99.99,,,0.00,42,weatherlink.com 1.10,2013-06-08 19:56:00,
2013-06-08 21:26:00,60.2,54.0,30.06,SSE,159,2.0,-999.0,79,-99.99,,,0.00,16,weatherlink.com 1.10,2013-06-08 20:26:00,
2013-06-08 21:56:00,58.0,53.0,30.07,ENE,66,2.0,-999.0,82,-99.99,,,0.00,0,weatherlink.com 1.10,2013-06-08 20:56:00,
2013-06-08 22:11:00,56.9,52.0,30.08,ENE,66,3.0,-999.0,84,-99.99,,,0.00,0,weatherlink.com 1.10,2013-06-08 21:11:00,
2013-06-08 22:26:00,55.7,51.0,30.08,North,11,5.0,-999.0,85,-99.99,,,0.00,0,weatherlink.com 1.10,2013-06-08 21:26:00,
2013-06-08 22:56:00,54.2,48.0,30.08,North,5,0.0,-999.0,80,-99.99,,,0.00,0,weatherlink.com 1.10,2013-06-08 21:56:00,
2013-06-08 23:11:00,53.5,48.0,30.08,North,5,0.0,-999.0,81,-99.99,,,0.00,0,weatherlink.com 1.10,2013-06-08 22:11:00,
2013-06-08 23:26:00,52.5,47.0,30.08,North,5,3.0,-999.0,82,-99.99,,,0.00,0,weatherlink.com 1.10,2013-06-08 22:26:00,